createdAt,value
2023-05-17T00:03:09.298Z,22.46
2023-05-17T00:08:11.259Z,22.50
2023-05-17T00:13:12.694Z,22.51
2023-05-17T00:18:14.266Z,22.51
2023-05-17T00:23:15.735Z,22.47
2023-05-17T00:28:17.157Z,22.47
2023-05-17T00:33:18.645Z,22.43
2023-05-17T00:38:20.076Z,22.47
2023-05-17T00:43:21.511Z,22.49
2023-05-17T00:48:25.459Z,22.52
2023-05-17T00:53:28.589Z,22.52
2023-05-17T00:58:30.083Z,22.50
2023-05-17T01:03:31.658Z,22.44
2023-05-17T01:08:33.271Z,22.46
2023-05-17T01:13:48.782Z,22.48
2023-05-17T01:18:58.931Z,22.51
2023-05-17T01:24:16.083Z,22.51
2023-05-17T01:29:17.638Z,22.48
2023-05-17T01:34:26.306Z,22.44
2023-05-17T01:39:27.818Z,22.45
2023-05-17T01:44:40.823Z,22.49
2023-05-17T01:49:42.243Z,22.49
2023-05-17T01:54:47.594Z,22.50
2023-05-17T01:59:49.043Z,22.51
2023-05-17T02:04:51.551Z,22.47
2023-05-17T02:09:53.098Z,22.46
2023-05-17T02:14:54.545Z,22.49
2023-05-17T02:19:56.010Z,22.51
2023-05-17T02:24:57.437Z,22.52
2023-05-17T02:29:58.919Z,22.51
2023-05-17T02:35:00.359Z,22.45
2023-05-17T02:40:01.809Z,22.46
2023-05-17T02:45:03.478Z,22.50
2023-05-17T02:50:05.276Z,22.55
2023-05-17T02:55:06.863Z,22.55
2023-05-17T03:00:09.234Z,22.49
2023-05-17T03:05:10.808Z,22.46
2023-05-17T03:10:12.321Z,22.46
2023-05-17T03:15:14.162Z,22.49
2023-05-17T03:20:15.662Z,22.51
2023-05-17T03:25:17.173Z,22.51
2023-05-17T03:30:18.668Z,22.49
2023-05-17T03:35:20.169Z,22.47
2023-05-17T03:40:21.655Z,22.48
2023-05-17T03:45:23.123Z,22.51
2023-05-17T03:50:24.570Z,22.53
2023-05-17T03:55:26.036Z,22.52
2023-05-17T04:00:27.519Z,22.50
2023-05-17T04:05:29.137Z,22.48
2023-05-17T04:10:30.861Z,22.50
2023-05-17T04:15:32.352Z,22.55
2023-05-17T04:20:33.813Z,22.55
2023-05-17T04:25:35.229Z,22.53
2023-05-17T04:30:36.956Z,22.53
2023-05-17T04:35:38.543Z,22.51
2023-05-17T04:40:40.021Z,22.56
2023-05-17T04:45:41.466Z,22.62
2023-05-17T04:50:45.480Z,22.62
2023-05-17T04:55:48.092Z,22.62
2023-05-17T05:00:49.772Z,22.59
2023-05-17T05:05:51.207Z,22.56
2023-05-17T05:10:52.675Z,22.57
2023-05-17T05:15:54.094Z,22.63
2023-05-17T05:20:56.233Z,22.70
2023-05-17T05:25:57.679Z,22.73
2023-05-17T05:31:00.243Z,22.71
2023-05-17T05:36:01.688Z,22.67
2023-05-17T05:41:03.132Z,22.65
2023-05-17T05:46:04.773Z,22.63
2023-05-17T05:51:06.248Z,22.63
2023-05-17T05:56:07.707Z,22.66
2023-05-17T06:01:09.202Z,22.72
2023-05-17T06:06:11.172Z,22.73
2023-05-17T06:11:13.668Z,22.73
2023-05-17T06:16:15.175Z,22.70
2023-05-17T06:21:18.231Z,22.68
2023-05-17T06:26:19.689Z,22.63
2023-05-17T06:31:21.345Z,22.64
2023-05-17T06:36:24.374Z,22.68
2023-05-17T06:41:26.821Z,22.73
2023-05-17T06:46:28.265Z,22.77
2023-05-17T06:51:29.722Z,22.74
2023-05-17T06:56:31.723Z,22.74
2023-05-17T07:01:33.196Z,22.70
2023-05-17T07:06:34.637Z,22.67
2023-05-17T07:11:36.179Z,22.67
2023-05-17T07:16:37.605Z,22.65
2023-05-17T07:21:39.062Z,22.71
2023-05-17T07:26:40.655Z,22.73
2023-05-17T07:31:42.098Z,22.73
2023-05-17T07:36:43.582Z,22.73
2023-05-17T07:41:45.025Z,22.74
2023-05-17T07:46:46.498Z,22.72
2023-05-17T07:51:48.203Z,22.72
2023-05-17T07:56:49.633Z,22.69
2023-05-17T08:01:51.126Z,22.68
2023-05-17T08:06:52.628Z,22.68
2023-05-17T08:11:54.153Z,22.69
2023-05-17T08:16:55.635Z,22.69
2023-05-17T08:21:57.217Z,22.67
2023-05-17T08:26:58.659Z,22.67
2023-05-17T08:32:00.111Z,22.68
2023-05-17T08:37:02.079Z,22.73
2023-05-17T08:42:08.421Z,22.82
2023-05-17T08:47:11.271Z,22.83
2023-05-17T08:52:12.798Z,22.87
2023-05-17T08:57:14.482Z,22.97
2023-05-17T09:02:16.219Z,22.94
2023-05-17T09:07:17.918Z,22.92
2023-05-17T09:12:25.413Z,22.92
2023-05-17T09:17:27.195Z,22.86
2023-05-17T09:22:28.677Z,22.83
2023-05-17T09:27:30.921Z,22.81
2023-05-17T09:32:32.417Z,22.79
2023-05-17T09:37:33.925Z,22.80
2023-05-17T09:42:37.184Z,22.79
2023-05-17T09:47:38.707Z,22.77
2023-05-17T09:52:40.290Z,22.73
2023-05-17T09:57:41.798Z,22.75
2023-05-17T10:02:43.420Z,22.73
2023-05-17T10:07:45.546Z,22.73
2023-05-17T10:12:47.000Z,22.73
2023-05-17T10:17:48.461Z,22.72
2023-05-17T10:22:49.977Z,22.73
2023-05-17T10:27:51.775Z,22.77
2023-05-17T10:32:53.502Z,22.77
2023-05-17T10:37:55.040Z,22.79
2023-05-17T10:42:56.498Z,22.79
2023-05-17T10:47:59.733Z,22.79
2023-05-17T10:53:04.613Z,22.71
2023-05-17T10:58:22.383Z,22.68
2023-05-17T11:03:28.857Z,22.68
2023-05-17T11:08:30.332Z,22.67
2023-05-17T11:13:32.099Z,22.68
2023-05-17T11:18:53.518Z,22.65
2023-05-17T11:23:56.342Z,22.63
2023-05-17T11:29:02.772Z,22.63
2023-05-17T11:34:04.501Z,22.62
2023-05-17T11:39:24.305Z,22.61
2023-05-17T11:44:32.786Z,22.59
2023-05-17T11:49:37.276Z,22.56
2023-05-17T11:54:39.209Z,22.63
2023-05-17T11:59:40.716Z,22.64
2023-05-17T12:04:42.318Z,22.80
2023-05-17T12:09:44.398Z,22.78
2023-05-17T12:14:47.770Z,22.83
2023-05-17T12:19:52.312Z,22.91
2023-05-17T12:24:53.815Z,23.00
2023-05-17T12:29:56.289Z,23.10
2023-05-17T12:34:57.739Z,23.15
2023-05-17T12:40:01.624Z,23.10
2023-05-17T12:45:03.197Z,23.17
2023-05-17T12:50:05.820Z,23.27
2023-05-17T12:55:07.750Z,23.21
2023-05-17T13:00:10.597Z,23.23
2023-05-17T13:05:18.698Z,23.25
2023-05-17T13:10:27.197Z,23.25
2023-05-17T13:15:32.524Z,23.20
2023-05-17T13:20:34.001Z,23.16
2023-05-17T13:25:36.682Z,23.03
2023-05-17T13:30:39.767Z,23.08
2023-05-17T13:35:41.632Z,23.04
2023-05-17T13:40:43.138Z,22.95
2023-05-17T13:45:44.613Z,23.02
2023-05-17T13:50:46.044Z,22.96
2023-05-17T13:55:47.539Z,23.00
2023-05-17T14:00:49.232Z,22.94
2023-05-17T14:05:52.709Z,22.91
2023-05-17T14:10:54.210Z,22.95
2023-05-17T14:15:55.861Z,23.00
2023-05-17T14:20:57.294Z,22.97
2023-05-17T14:25:58.769Z,22.92
2023-05-17T14:31:00.227Z,22.89
2023-05-17T14:36:01.956Z,22.91
2023-05-17T14:41:03.868Z,22.95
2023-05-17T14:46:05.312Z,22.95
2023-05-17T14:51:06.866Z,22.93
2023-05-17T14:56:08.719Z,22.92
2023-05-17T15:01:10.153Z,22.91
2023-05-17T15:06:12.076Z,22.87
2023-05-17T15:11:14.064Z,22.89
2023-05-17T15:16:15.695Z,22.89
2023-05-17T15:21:18.733Z,22.91
2023-05-17T15:26:20.255Z,22.88
2023-05-17T15:31:23.723Z,22.84
2023-05-17T15:36:25.151Z,22.89
2023-05-17T15:41:29.765Z,22.89
2023-05-17T15:46:32.135Z,22.85
2023-05-17T15:51:33.575Z,22.83
2023-05-17T15:56:38.041Z,22.84
2023-05-17T16:01:41.704Z,22.83
2023-05-17T16:06:43.281Z,22.84
2023-05-17T16:11:44.818Z,22.79
2023-05-17T16:16:46.465Z,22.81
2023-05-17T16:21:50.497Z,22.82
2023-05-17T16:26:52.327Z,22.81
2023-05-17T16:31:53.799Z,22.80
2023-05-17T16:36:55.332Z,22.77
2023-05-17T16:41:56.791Z,22.73
2023-05-17T16:46:58.457Z,22.74
2023-05-17T16:51:59.907Z,22.72
2023-05-17T16:57:02.155Z,22.70
2023-05-17T17:02:03.983Z,22.68
2023-05-17T17:07:05.460Z,22.67
2023-05-17T17:12:20.086Z,22.70
2023-05-17T17:17:25.664Z,22.63
2023-05-17T17:22:27.122Z,22.58
2023-05-17T17:27:28.584Z,22.60
2023-05-17T17:32:30.314Z,22.57
2023-05-17T17:37:31.898Z,22.59
2023-05-17T17:42:33.380Z,22.55
2023-05-17T17:47:34.871Z,22.53
2023-05-17T17:52:37.194Z,22.49
2023-05-17T17:57:38.728Z,22.46
2023-05-17T18:02:40.374Z,22.56
2023-05-17T18:07:41.914Z,22.53
2023-05-17T18:12:43.367Z,22.48
2023-05-17T18:17:44.912Z,22.48
2023-05-17T18:22:47.188Z,22.47
2023-05-17T18:27:48.647Z,22.41
2023-05-17T18:32:50.197Z,22.37
2023-05-17T18:37:51.672Z,22.44
2023-05-17T18:42:53.205Z,22.39
2023-05-17T18:47:54.753Z,22.37
2023-05-17T18:52:57.261Z,22.38
2023-05-17T18:57:58.799Z,22.35
2023-05-17T19:03:00.312Z,22.44
2023-05-17T19:08:01.789Z,22.42
2023-05-17T19:13:03.226Z,22.43
2023-05-17T19:18:04.713Z,22.43
2023-05-17T19:23:06.680Z,22.38
2023-05-17T19:28:08.107Z,22.39
2023-05-17T19:33:11.702Z,22.37
2023-05-17T19:38:13.159Z,22.40
2023-05-17T19:43:14.698Z,22.39
2023-05-17T19:48:16.141Z,22.39
2023-05-17T19:53:17.584Z,22.39
2023-05-17T19:58:19.022Z,22.33
2023-05-17T20:03:20.655Z,22.34
2023-05-17T20:08:22.185Z,22.32
2023-05-17T20:13:28.400Z,22.38
2023-05-17T20:18:30.366Z,22.33
2023-05-17T20:23:31.821Z,22.32
2023-05-17T20:28:33.259Z,22.34
2023-05-17T20:33:34.688Z,22.33
2023-05-17T20:38:36.106Z,22.27
2023-05-17T20:43:37.634Z,22.31
2023-05-17T20:48:42.946Z,22.33
2023-05-17T20:53:46.161Z,22.32
2023-05-17T20:58:48.016Z,22.30
2023-05-17T21:03:51.300Z,22.25
2023-05-17T21:08:53.296Z,22.30
2023-05-17T21:13:54.724Z,22.33
2023-05-17T21:18:56.214Z,22.32
2023-05-17T21:23:57.671Z,22.28
2023-05-17T21:28:59.179Z,22.24
2023-05-17T21:34:00.757Z,22.29
2023-05-17T21:39:02.192Z,22.27
2023-05-17T21:44:03.743Z,22.23
2023-05-17T21:49:05.231Z,22.16
2023-05-17T21:54:06.701Z,22.17
2023-05-17T21:59:08.163Z,22.22
2023-05-17T22:04:09.703Z,22.23
2023-05-17T22:09:11.202Z,22.22
2023-05-17T22:14:12.640Z,22.23
2023-05-17T22:19:14.189Z,22.23
2023-05-17T22:24:15.748Z,22.22
2023-05-17T22:29:17.202Z,22.20
2023-05-17T22:34:18.679Z,22.19
2023-05-17T22:39:20.103Z,22.19
2023-05-17T22:44:22.056Z,22.22
2023-05-17T22:49:24.255Z,22.20
2023-05-17T22:54:26.726Z,22.18
2023-05-17T22:59:28.908Z,22.18
2023-05-17T23:04:30.632Z,22.15
2023-05-17T23:09:37.861Z,22.17
2023-05-17T23:14:39.719Z,22.16
2023-05-17T23:19:41.186Z,22.13
2023-05-17T23:24:42.666Z,22.13
2023-05-17T23:29:45.763Z,22.12
2023-05-17T23:34:47.709Z,22.12
2023-05-17T23:39:49.139Z,22.13
2023-05-17T23:44:50.561Z,22.10
2023-05-17T23:49:52.646Z,22.09
2023-05-17T23:54:57.387Z,22.08
2023-05-17T23:59:58.847Z,22.14
